createdAt,value
2016-08-06T00:01:01.005Z,0
2016-08-06T00:02:01.665Z,0
2016-08-06T00:03:01.645Z,0
2016-08-06T00:04:01.597Z,0
2016-08-06T00:05:02.270Z,0
2016-08-06T00:06:02.240Z,0
2016-08-06T00:07:02.202Z,0
2016-08-06T00:08:02.170Z,0
2016-08-06T00:09:00.738Z,0
2016-08-06T00:10:01.417Z,0
2016-08-06T00:11:01.369Z,0
2016-08-06T00:12:02.065Z,0
2016-08-06T00:13:01.313Z,0
2016-08-06T00:14:01.280Z,0
2016-08-06T00:16:01.210Z,0
2016-08-06T00:17:01.878Z,0
2016-08-06T00:18:01.868Z,0
2016-08-06T00:19:01.834Z,0
2016-08-06T00:20:01.332Z,0
2016-08-06T00:21:01.057Z,0
2016-08-06T00:22:01.716Z,0
2016-08-06T00:22:59.594Z,0
2016-08-06T00:24:01.655Z,0
2016-08-06T00:25:00.922Z,0
2016-08-06T00:26:00.206Z,0
2016-08-06T00:27:00.873Z,0
2016-08-06T00:28:00.134Z,0
2016-08-06T00:29:01.493Z,0
2016-08-06T00:31:01.432Z,0
2016-08-06T00:31:59.997Z,0
2016-08-06T00:33:00.687Z,0
2016-08-06T00:33:59.938Z,0
2016-08-06T00:35:00.601Z,0
2016-08-06T00:36:01.262Z,0
2016-08-06T00:37:01.233Z,0
2016-08-06T00:38:00.514Z,0
2016-08-06T00:39:00.482Z,0
2016-08-06T00:40:00.437Z,0
2016-08-06T00:41:01.112Z,0
2016-08-06T00:42:00.373Z,0
2016-08-06T00:43:01.037Z,0
2016-08-06T00:43:59.638Z,0
2016-08-06T00:45:00.968Z,0
2016-08-06T00:46:00.254Z,0
2016-08-06T00:47:00.920Z,0
2016-08-06T00:48:00.876Z,0
2016-08-06T00:49:00.850Z,0
2016-08-06T00:49:59.415Z,0
2016-08-06T00:51:00.085Z,0
2016-08-06T00:51:59.354Z,0
2016-08-06T00:53:00.012Z,0
2016-08-06T00:53:59.985Z,0
2016-08-06T00:54:59.254Z,0
2016-08-06T00:56:00.618Z,0
2016-08-06T00:57:00.588Z,0
2016-08-06T00:58:00.558Z,0
2016-08-06T00:59:00.539Z,0
2016-08-06T00:59:59.095Z,0
2016-08-06T01:00:59.086Z,0
2016-08-06T01:01:59.038Z,0
2016-08-06T01:02:59.703Z,0
2016-08-06T01:03:59.666Z,0
2016-08-06T01:05:00.331Z,0
2016-08-06T01:06:00.288Z,0
2016-08-06T01:06:59.566Z,0
2016-08-06T01:07:58.850Z,0
2016-08-06T01:08:59.506Z,0
2016-08-06T01:09:59.469Z,0
2016-08-06T01:11:00.143Z,0
2016-08-06T01:11:59.404Z,0
2016-08-06T01:12:59.369Z,0
2016-08-06T01:13:59.339Z,0
2016-08-06T01:15:00.006Z,0
2016-08-06T01:15:59.281Z,0
2016-08-06T01:16:59.938Z,0
2016-08-06T01:17:59.213Z,0
2016-08-06T01:18:59.173Z,0
2016-08-06T01:19:58.444Z,0
2016-08-06T01:20:59.119Z,0
2016-08-06T01:21:59.773Z,0
2016-08-06T01:22:59.050Z,0
2016-08-06T01:23:59.726Z,0
2016-08-06T01:24:58.980Z,0
2016-08-06T01:25:58.956Z,0
2016-08-06T01:26:59.618Z,0
2016-08-06T01:27:59.583Z,0
2016-08-06T01:28:59.568Z,0
2016-08-06T01:29:59.523Z,0
2016-08-06T01:30:59.484Z,0
2016-08-06T01:31:58.844Z,0
2016-08-06T01:32:58.728Z,0
2016-08-06T01:33:59.395Z,0
2016-08-06T01:34:57.970Z,0
2016-08-06T01:35:58.627Z,0
2016-08-06T01:36:58.599Z,0
2016-08-06T01:37:58.561Z,0
2016-08-06T01:38:58.538Z,0
2016-08-06T01:39:57.104Z,0
2016-08-06T01:40:59.163Z,0
2016-08-06T01:41:59.137Z,0
2016-08-06T01:42:59.109Z,0
2016-08-06T01:43:58.389Z,0
2016-08-06T01:44:58.346Z,0
2016-08-06T01:45:58.320Z,0
2016-08-06T01:46:58.979Z,0
2016-08-06T01:47:58.934Z,0
2016-08-06T01:48:58.214Z,0
2016-08-06T01:49:58.174Z,0
2016-08-06T01:50:58.145Z,0
2016-08-06T01:51:58.129Z,0
2016-08-06T01:52:58.086Z,0
2016-08-06T01:53:58.745Z,0
2016-08-06T01:54:58.710Z,0
2016-08-06T01:55:57.985Z,0
2016-08-06T01:56:58.644Z,0
2016-08-06T01:57:57.238Z,0
2016-08-06T01:58:57.897Z,0
2016-08-06T01:59:57.874Z,0
2016-08-06T02:00:58.521Z,0
2016-08-06T02:01:58.503Z,0
2016-08-06T02:02:58.451Z,0
2016-08-06T02:03:57.727Z,0
2016-08-06T02:04:56.993Z,0
2016-08-06T02:05:57.661Z,0
2016-08-06T02:06:57.624Z,0
2016-08-06T02:07:57.590Z,0
2016-08-06T02:08:57.562Z,0
2016-08-06T02:09:57.537Z,0
2016-08-06T02:10:58.195Z,0
2016-08-06T02:11:57.464Z,0
2016-08-06T02:12:58.129Z,0
2016-08-06T02:13:58.098Z,0
2016-08-06T02:14:57.377Z,0
2016-08-06T02:15:57.330Z,0
2016-08-06T02:16:57.997Z,0
2016-08-06T02:17:56.582Z,0
2016-08-06T02:18:57.934Z,0
2016-08-06T02:19:57.908Z,0
2016-08-06T02:20:57.869Z,0
2016-08-06T02:21:57.837Z,0
2016-08-06T02:22:56.408Z,0
2016-08-06T02:23:57.074Z,0
2016-08-06T02:24:57.034Z,0
2016-08-06T02:25:57.005Z,0
2016-08-06T02:26:57.667Z,0
2016-08-06T02:27:56.239Z,0
2016-08-06T02:28:56.904Z,0
2016-08-06T02:29:57.579Z,0
2016-08-06T02:30:56.143Z,0
2016-08-06T02:31:56.804Z,0
2016-08-06T02:32:56.774Z,0
2016-08-06T02:33:57.441Z,0
2016-08-06T02:34:57.410Z,0
2016-08-06T02:35:56.677Z,0
2016-08-06T02:36:56.645Z,0
2016-08-06T02:37:55.213Z,0
2016-08-06T02:38:57.269Z,0
2016-08-06T02:39:55.846Z,0
2016-08-06T02:40:57.201Z,0
2016-08-06T02:41:57.172Z,0
2016-08-06T02:42:57.135Z,0
2016-08-06T02:43:57.107Z,0
2016-08-06T02:44:57.077Z,0
2016-08-06T02:45:57.041Z,0
2016-08-06T02:46:57.024Z,0
2016-08-06T02:47:56.971Z,0
2016-08-06T02:48:56.939Z,0
2016-08-06T02:49:56.925Z,0
2016-08-06T02:50:56.192Z,0
2016-08-06T02:51:56.152Z,0
2016-08-06T02:52:56.126Z,0
2016-08-06T02:53:56.083Z,0
2016-08-06T02:54:56.739Z,0
2016-08-06T02:55:55.320Z,0
2016-08-06T02:56:55.992Z,0
2016-08-06T02:57:55.958Z,0
2016-08-06T02:58:55.923Z,0
2016-08-06T02:59:55.885Z,0
2016-08-06T03:00:55.857Z,0
2016-08-06T03:01:55.836Z,0
2016-08-06T03:02:56.477Z,0
2016-08-06T03:03:55.747Z,0
2016-08-06T03:04:56.413Z,0
2016-08-06T03:05:55.688Z,0
2016-08-06T03:06:54.261Z,0
2016-08-06T03:07:54.925Z,0
2016-08-06T03:08:56.284Z,0
2016-08-06T03:09:56.246Z,0
2016-08-06T03:10:56.210Z,0
2016-08-06T03:11:55.495Z,0
2016-08-06T03:12:55.448Z,0
2016-08-06T03:13:56.163Z,0
2016-08-06T03:14:55.388Z,0
2016-08-06T03:15:56.056Z,0
2016-08-06T03:16:54.621Z,0
2016-08-06T03:17:55.984Z,0
2016-08-06T03:18:55.251Z,0
2016-08-06T03:19:55.248Z,0
2016-08-06T03:20:55.184Z,0
2016-08-06T03:21:55.855Z,0
2016-08-06T03:22:55.125Z,0
2016-08-06T03:23:55.091Z,0
2016-08-06T03:24:53.659Z,0
2016-08-06T03:25:55.024Z,0
2016-08-06T03:26:55.690Z,0
2016-08-06T03:27:55.655Z,0
2016-08-06T03:28:54.929Z,0
2016-08-06T03:29:54.901Z,0
2016-08-06T03:30:55.557Z,0
2016-08-06T03:31:54.840Z,0
2016-08-06T03:32:55.485Z,0
2016-08-06T03:33:55.454Z,0
2016-08-06T03:34:55.417Z,0
2016-08-06T03:35:55.383Z,0
2016-08-06T03:36:55.354Z,0
2016-08-06T03:37:55.319Z,0
2016-08-06T03:38:55.280Z,0
2016-08-06T03:39:55.263Z,0
2016-08-06T03:40:55.215Z,0
2016-08-06T03:41:54.489Z,0
2016-08-06T03:42:55.154Z,0
2016-08-06T03:43:55.119Z,0
2016-08-06T03:44:53.694Z,0
2016-08-06T03:46:54.321Z,0
2016-08-06T03:47:53.593Z,0
2016-08-06T03:48:54.257Z,0
2016-08-06T03:49:54.922Z,0
2016-08-06T03:50:54.189Z,0
2016-08-06T03:51:53.472Z,0
2016-08-06T03:52:54.823Z,0
2016-08-06T03:53:54.794Z,0
2016-08-06T03:54:54.757Z,0
2016-08-06T03:55:54.717Z,0
2016-08-06T03:56:53.291Z,0
2016-08-06T03:57:53.958Z,0
2016-08-06T03:58:53.928Z,0
2016-08-06T03:59:54.587Z,0
2016-08-06T04:01:54.522Z,0
2016-08-06T04:02:54.495Z,0
2016-08-06T04:03:54.450Z,0
2016-08-06T04:04:54.422Z,0
2016-08-06T04:05:53.693Z,5
2016-08-06T04:06:54.347Z,5
2016-08-06T04:07:53.626Z,5
2016-08-06T04:08:53.595Z,5
2016-08-06T04:09:53.562Z,5
2016-08-06T04:10:54.220Z,5
2016-08-06T04:11:53.496Z,5
2016-08-06T04:12:54.152Z,5
2016-08-06T04:13:53.420Z,5
2016-08-06T04:14:53.388Z,10
2016-08-06T04:15:53.365Z,10
2016-08-06T04:16:54.019Z,10
2016-08-06T04:17:53.288Z,10
2016-08-06T04:18:53.255Z,10
2016-08-06T04:19:53.913Z,15
2016-08-06T04:20:53.887Z,15
2016-08-06T04:21:53.852Z,15
2016-08-06T04:22:53.123Z,15
2016-08-06T04:23:53.797Z,15
2016-08-06T04:24:52.371Z,20
2016-08-06T04:25:53.227Z,20
2016-08-06T04:26:52.997Z,20
2016-08-06T04:27:53.658Z,25
2016-08-06T04:28:52.920Z,25
2016-08-06T04:29:53.790Z,25
2016-08-06T04:30:53.552Z,30
2016-08-06T04:31:52.821Z,30
2016-08-06T04:32:51.397Z,35
2016-08-06T04:33:53.450Z,35
2016-08-06T04:34:53.428Z,30
2016-08-06T04:35:53.388Z,35
2016-08-06T04:36:53.354Z,35
2016-08-06T04:37:52.621Z,35
2016-08-06T04:38:52.595Z,35
2016-08-06T04:39:51.870Z,45
2016-08-06T04:40:53.228Z,50
2016-08-06T04:41:52.491Z,50
2016-08-06T04:42:53.166Z,50
2016-08-06T04:43:52.421Z,45
2016-08-06T04:44:52.394Z,40
2016-08-06T04:45:53.064Z,40
2016-08-06T04:46:53.022Z,35
2016-08-06T04:47:52.294Z,40
2016-08-06T04:48:52.961Z,50
2016-08-06T04:49:52.247Z,55
2016-08-06T04:50:51.501Z,60
2016-08-06T04:51:52.875Z,60
2016-08-06T04:52:52.828Z,65
2016-08-06T04:53:52.804Z,70
2016-08-06T04:54:52.766Z,80
2016-08-06T04:55:51.351Z,85
2016-08-06T04:56:51.316Z,85
2016-08-06T04:57:51.981Z,90
2016-08-06T04:58:52.633Z,90
2016-08-06T04:59:51.211Z,95
2016-08-06T05:00:52.570Z,90
2016-08-06T05:01:51.843Z,90
2016-08-06T05:02:52.506Z,90
2016-08-06T05:03:51.775Z,85
2016-08-06T05:04:50.362Z,90
2016-08-06T05:05:51.714Z,90
2016-08-06T05:06:51.675Z,95
2016-08-06T05:07:51.646Z,105
2016-08-06T05:08:52.319Z,115
2016-08-06T05:09:52.277Z,125
2016-08-06T05:10:51.556Z,135
2016-08-06T05:11:51.521Z,140
2016-08-06T05:12:50.799Z,140
2016-08-06T05:13:51.456Z,140
2016-08-06T05:14:52.134Z,140
2016-08-06T05:15:51.410Z,140
2016-08-06T05:16:51.449Z,130
2016-08-06T05:17:52.019Z,120
2016-08-06T05:18:51.304Z,110
2016-08-06T05:19:51.956Z,120
2016-08-06T05:20:51.918Z,130
2016-08-06T05:21:49.797Z,140
2016-08-06T05:22:51.864Z,140
2016-08-06T05:23:51.130Z,150
2016-08-06T05:24:49.711Z,165
2016-08-06T05:25:51.071Z,200
2016-08-06T05:26:51.733Z,185
2016-08-06T05:27:51.014Z,175
2016-08-06T05:28:50.291Z,185
2016-08-06T05:29:50.942Z,155
2016-08-06T05:30:51.616Z,145
2016-08-06T05:31:50.871Z,135
2016-08-06T05:32:50.844Z,130
2016-08-06T05:33:50.812Z,135
2016-08-06T05:34:49.384Z,135
2016-08-06T05:35:51.444Z,150
2016-08-06T05:36:50.714Z,165
2016-08-06T05:37:51.385Z,195
2016-08-06T05:38:49.955Z,200
2016-08-06T05:39:51.317Z,200
2016-08-06T05:40:50.595Z,190
2016-08-06T05:41:51.259Z,165
2016-08-06T05:42:51.231Z,145
2016-08-06T05:43:50.497Z,140
2016-08-06T05:44:49.770Z,140
2016-08-06T05:45:51.138Z,155
2016-08-06T05:46:51.093Z,165
2016-08-06T05:47:51.068Z,180
2016-08-06T05:48:49.652Z,200
2016-08-06T05:49:51.004Z,230
2016-08-06T05:50:50.973Z,260
2016-08-06T05:51:50.248Z,320
2016-08-06T05:52:49.524Z,320
2016-08-06T05:53:50.874Z,315
2016-08-06T05:54:50.150Z,325
2016-08-06T05:55:50.820Z,330
2016-08-06T05:56:50.092Z,340
2016-08-06T05:57:50.750Z,345
2016-08-06T05:58:50.730Z,355
2016-08-06T05:59:50.707Z,365
2016-08-06T06:00:50.670Z,425
2016-08-06T06:01:50.643Z,475
2016-08-06T06:02:50.604Z,685
2016-08-06T06:03:50.602Z,630
2016-08-06T06:04:49.151Z,645
2016-08-06T06:05:50.514Z,530
2016-08-06T06:06:49.800Z,665
2016-08-06T06:07:49.771Z,695
2016-08-06T06:08:50.433Z,810
2016-08-06T06:09:50.397Z,635
2016-08-06T06:10:49.682Z,525
2016-08-06T06:11:48.952Z,560
2016-08-06T06:12:49.627Z,620
2016-08-06T06:13:48.900Z,590
2016-08-06T06:14:48.177Z,625
2016-08-06T06:15:49.538Z,750
2016-08-06T06:16:50.223Z,595
2016-08-06T06:17:50.190Z,490
2016-08-06T06:18:49.471Z,945
2016-08-06T06:19:50.125Z,580
2016-08-06T06:20:48.709Z,745
2016-08-06T06:21:49.375Z,540
2016-08-06T06:22:48.652Z,510
2016-08-06T06:23:48.628Z,520
2016-08-06T06:24:48.612Z,530
2016-08-06T06:25:49.273Z,535
2016-08-06T06:26:49.256Z,515
2016-08-06T06:27:49.923Z,430
2016-08-06T06:28:49.895Z,405
2016-08-06T06:29:49.876Z,445
2016-08-06T06:30:49.842Z,440
2016-08-06T06:31:48.674Z,415
2016-08-06T06:32:49.085Z,440
2016-08-06T06:33:49.763Z,455
2016-08-06T06:34:49.035Z,625
2016-08-06T06:35:49.025Z,535
2016-08-06T06:36:49.685Z,635
2016-08-06T06:37:48.256Z,1060
2016-08-06T06:38:49.624Z,840
2016-08-06T06:39:49.617Z,635
2016-08-06T06:40:49.580Z,580
2016-08-06T06:41:48.860Z,515
2016-08-06T06:42:48.831Z,575
2016-08-06T06:43:49.505Z,510
2016-08-06T06:44:48.799Z,945
2016-08-06T06:45:48.754Z,305
2016-08-06T06:46:47.816Z,595
2016-08-06T06:47:48.713Z,640
2016-08-06T06:48:49.378Z,645
2016-08-06T06:49:47.953Z,780
2016-08-06T06:50:49.367Z,1320
2016-08-06T06:51:49.290Z,1020
2016-08-06T06:52:48.584Z,640
2016-08-06T06:53:49.266Z,570
2016-08-06T06:54:49.242Z,575
2016-08-06T06:55:49.198Z,620
2016-08-06T06:56:49.171Z,675
2016-08-06T06:57:47.755Z,595
2016-08-06T06:58:48.425Z,560
2016-08-06T06:59:48.398Z,535
2016-08-06T07:00:48.391Z,545
2016-08-06T07:01:47.667Z,565
2016-08-06T07:02:48.343Z,875
2016-08-06T07:03:48.298Z,1305
2016-08-06T07:04:48.275Z,655
2016-08-06T07:05:48.252Z,620
2016-08-06T07:06:48.229Z,415
2016-08-06T07:07:47.500Z,330
2016-08-06T07:08:48.867Z,405
2016-08-06T07:09:48.154Z,315
2016-08-06T07:10:48.123Z,230
2016-08-06T07:11:48.796Z,425
2016-08-06T07:12:48.764Z,550
2016-08-06T07:13:48.761Z,1585
2016-08-06T07:14:48.717Z,1255
2016-08-06T07:15:48.695Z,935
2016-08-06T07:17:47.255Z,1375
2016-08-06T07:18:47.927Z,1525
2016-08-06T07:19:48.593Z,1240
2016-08-06T07:20:47.872Z,650
2016-08-06T07:21:47.848Z,1455
2016-08-06T07:22:47.824Z,1650
2016-08-06T07:23:48.504Z,1700
2016-08-06T07:24:48.473Z,1750
2016-08-06T07:25:47.748Z,1870
2016-08-06T07:26:47.735Z,1925
2016-08-06T07:27:48.407Z,1855
2016-08-06T07:28:47.686Z,1135
2016-08-06T07:29:47.667Z,500
2016-08-06T07:30:48.337Z,465
2016-08-06T07:32:47.597Z,395
2016-08-06T07:33:47.576Z,430
2016-08-06T07:34:47.567Z,455
2016-08-06T07:35:48.234Z,475
2016-08-06T07:36:46.118Z,485
2016-08-06T07:37:46.797Z,480
2016-08-06T07:38:48.170Z,450
2016-08-06T07:39:47.451Z,380
2016-08-06T07:40:48.123Z,450
2016-08-06T07:41:46.712Z,600
2016-08-06T07:42:47.381Z,680
2016-08-06T07:43:47.356Z,515
2016-08-06T07:44:48.030Z,605
2016-08-06T07:45:47.321Z,1420
2016-08-06T07:47:47.271Z,695
2016-08-06T07:48:47.938Z,605
2016-08-06T07:49:47.928Z,570
2016-08-06T07:50:47.210Z,480
2016-08-06T07:51:47.183Z,375
2016-08-06T07:52:47.846Z,505
2016-08-06T07:53:47.128Z,575
2016-08-06T07:54:47.810Z,570
2016-08-06T07:55:47.085Z,420
2016-08-06T07:56:47.066Z,1125
2016-08-06T07:57:47.036Z,1275
2016-08-06T07:58:47.018Z,1305
2016-08-06T07:59:46.988Z,850
2016-08-06T08:00:47.659Z,1240
2016-08-06T08:01:46.937Z,1465
2016-08-06T08:02:46.920Z,1500
2016-08-06T08:03:46.200Z,1210
2016-08-06T08:04:46.884Z,880
2016-08-06T08:05:47.551Z,695
2016-08-06T08:06:44.739Z,645
2016-08-06T08:07:47.512Z,595
2016-08-06T08:08:47.499Z,555
2016-08-06T08:09:46.078Z,320
2016-08-06T08:10:47.458Z,435
2016-08-06T08:11:47.435Z,560
2016-08-06T08:12:47.403Z,1560
2016-08-06T08:13:46.684Z,1965
2016-08-06T08:14:46.672Z,1880
2016-08-06T08:15:46.644Z,2240
2016-08-06T08:16:46.646Z,2150
2016-08-06T08:17:46.601Z,2255
2016-08-06T08:18:47.280Z,2255
2016-08-06T08:19:46.560Z,2245
2016-08-06T08:20:45.837Z,2240
2016-08-06T08:21:46.520Z,1065
2016-08-06T08:22:46.508Z,770
2016-08-06T08:23:47.174Z,2365
2016-08-06T08:24:47.160Z,2355
2016-08-06T08:25:47.137Z,2000
2016-08-06T08:26:47.133Z,1730
2016-08-06T08:27:47.097Z,2100
2016-08-06T08:28:45.689Z,2255
2016-08-06T08:29:46.380Z,2320
2016-08-06T08:30:47.041Z,2360
2016-08-06T08:31:47.052Z,2385
2016-08-06T08:32:45.618Z,725
2016-08-06T08:33:46.992Z,690
2016-08-06T08:34:45.590Z,660
2016-08-06T08:35:46.968Z,640
2016-08-06T08:36:46.254Z,690
2016-08-06T08:37:46.232Z,1755
2016-08-06T08:38:46.902Z,2225
2016-08-06T08:39:45.495Z,2320
2016-08-06T08:40:46.187Z,2215
2016-08-06T08:41:46.848Z,1575
2016-08-06T08:42:46.833Z,2415
2016-08-06T08:43:45.439Z,2590
2016-08-06T08:44:46.119Z,2585
2016-08-06T08:45:46.084Z,2285
2016-08-06T08:46:46.761Z,1595
2016-08-06T08:47:46.749Z,1235
2016-08-06T08:48:46.032Z,1045
2016-08-06T08:49:46.018Z,1080
2016-08-06T08:50:45.306Z,1080
2016-08-06T08:51:45.290Z,1710
2016-08-06T08:52:45.965Z,2445
2016-08-06T08:53:45.954Z,2470
2016-08-06T08:54:46.630Z,2585
2016-08-06T08:55:45.920Z,2665
2016-08-06T08:56:45.905Z,2570
2016-08-06T08:57:45.884Z,2335
2016-08-06T08:58:45.875Z,2215
2016-08-06T08:59:45.154Z,2155
2016-08-06T09:00:45.836Z,2380
2016-08-06T09:01:45.129Z,2435
2016-08-06T09:02:46.505Z,2080
2016-08-06T09:03:45.795Z,2175
2016-08-06T09:04:45.782Z,2145
2016-08-06T09:05:46.472Z,2145
2016-08-06T09:06:45.046Z,2550
2016-08-06T09:07:45.723Z,2565
2016-08-06T09:08:45.706Z,2730
2016-08-06T09:09:46.395Z,2780
2016-08-06T09:10:45.697Z,2500
2016-08-06T09:11:46.371Z,2560
2016-08-06T09:12:46.354Z,2735
2016-08-06T09:13:45.653Z,2860
2016-08-06T09:14:46.331Z,2775
2016-08-06T09:15:45.617Z,2830
2016-08-06T09:16:44.910Z,2680
2016-08-06T09:17:44.904Z,2800
2016-08-06T09:18:46.268Z,2595
2016-08-06T09:19:46.260Z,2860
2016-08-06T09:20:46.253Z,2910
2016-08-06T09:21:46.236Z,2740
2016-08-06T09:22:46.232Z,2815
2016-08-06T09:23:45.531Z,2910
2016-08-06T09:24:46.194Z,3060
2016-08-06T09:25:46.186Z,3180
2016-08-06T09:26:45.482Z,2900
2016-08-06T09:27:46.181Z,3185
2016-08-06T09:28:45.454Z,3215
2016-08-06T09:29:46.153Z,3215
2016-08-06T09:30:45.444Z,2960
2016-08-06T09:31:45.418Z,3190
2016-08-06T09:32:45.408Z,3195
2016-08-06T09:33:45.395Z,3020
2016-08-06T09:34:45.396Z,3050
2016-08-06T09:35:44.674Z,3285
2016-08-06T09:36:45.362Z,3360
2016-08-06T09:37:43.968Z,3370
2016-08-06T09:38:45.339Z,3295
2016-08-06T09:39:43.942Z,1065
2016-08-06T09:40:46.018Z,530
2016-08-06T09:41:45.307Z,560
2016-08-06T09:42:46.000Z,2725
2016-08-06T09:43:46.000Z,2910
2016-08-06T09:44:45.989Z,3045
2016-08-06T09:45:45.260Z,3440
2016-08-06T09:46:45.261Z,3630
2016-08-06T09:47:45.236Z,3550
2016-08-06T09:48:44.579Z,3480
2016-08-06T09:49:45.927Z,3710
2016-08-06T09:50:45.205Z,3445
2016-08-06T09:51:45.184Z,3445
2016-08-06T09:52:45.187Z,3455
2016-08-06T09:53:45.863Z,3395
2016-08-06T09:54:45.868Z,3400
2016-08-06T09:55:45.147Z,3310
2016-08-06T09:56:45.142Z,2980
2016-08-06T09:57:45.114Z,3250
2016-08-06T09:58:45.810Z,3320
2016-08-06T09:59:44.402Z,3370
2016-08-06T10:00:45.795Z,2805
2016-08-06T10:01:45.080Z,2910
2016-08-06T10:02:43.667Z,2950
2016-08-06T10:03:45.050Z,2810
2016-08-06T10:04:45.043Z,2695
2016-08-06T10:05:44.331Z,2980
2016-08-06T10:06:45.009Z,3225
2016-08-06T10:07:45.694Z,3205
2016-08-06T10:08:45.693Z,1750
2016-08-06T10:09:44.973Z,2965
2016-08-06T10:10:45.673Z,3205
2016-08-06T10:11:45.658Z,3330
2016-08-06T10:12:44.244Z,3540
2016-08-06T10:13:43.532Z,3515
2016-08-06T10:14:45.615Z,2515
2016-08-06T10:15:45.604Z,1875
2016-08-06T10:16:44.193Z,1460
2016-08-06T10:17:45.572Z,1485
2016-08-06T10:18:44.881Z,1500
2016-08-06T10:19:44.860Z,1510
2016-08-06T10:20:44.852Z,1490
2016-08-06T10:21:44.854Z,1390
2016-08-06T10:22:44.121Z,1330
2016-08-06T10:23:44.809Z,1325
2016-08-06T10:24:44.805Z,1140
2016-08-06T10:25:44.789Z,1015
2016-08-06T10:26:44.774Z,1090
2016-08-06T10:27:44.759Z,1150
2016-08-06T10:28:44.065Z,1055
2016-08-06T10:29:44.741Z,1155
2016-08-06T10:30:45.419Z,1180
2016-08-06T10:31:45.413Z,1050
2016-08-06T10:32:43.770Z,985
2016-08-06T10:33:44.004Z,1005
2016-08-06T10:34:43.287Z,1350
2016-08-06T10:35:45.362Z,2170
2016-08-06T10:36:44.648Z,2920
2016-08-06T10:37:45.335Z,3205
2016-08-06T10:38:44.626Z,3550
2016-08-06T10:39:45.312Z,3445
2016-08-06T10:40:43.211Z,3110
2016-08-06T10:41:45.285Z,3010
2016-08-06T10:42:44.574Z,2990
2016-08-06T10:43:44.567Z,3195
2016-08-06T10:44:43.874Z,3055
2016-08-06T10:45:44.533Z,3040
2016-08-06T10:46:43.824Z,3350
2016-08-06T10:47:42.673Z,3390
2016-08-06T10:48:45.188Z,1630
2016-08-06T10:49:45.176Z,3210
2016-08-06T10:50:44.479Z,495
2016-08-06T10:51:45.155Z,515
2016-08-06T10:52:43.047Z,2675
2016-08-06T10:53:45.121Z,3760
2016-08-06T10:54:45.117Z,4260
2016-08-06T10:55:44.423Z,4415
2016-08-06T10:56:45.082Z,4375
2016-08-06T10:57:44.373Z,4250
2016-08-06T10:58:44.349Z,4120
2016-08-06T10:59:44.335Z,3720
2016-08-06T11:00:44.331Z,3020
2016-08-06T11:01:45.008Z,3040
2016-08-06T11:03:43.581Z,1665
2016-08-06T11:04:44.259Z,875
2016-08-06T11:05:44.938Z,805
2016-08-06T11:06:44.926Z,730
2016-08-06T11:07:44.907Z,660
2016-08-06T11:08:44.899Z,620
2016-08-06T11:09:44.874Z,615
2016-08-06T11:10:44.885Z,615
2016-08-06T11:11:44.849Z,610
2016-08-06T11:12:44.129Z,615
2016-08-06T11:13:44.813Z,595
2016-08-06T11:14:43.410Z,570
2016-08-06T11:15:43.404Z,580
2016-08-06T11:16:44.758Z,920
2016-08-06T11:17:44.753Z,1940
2016-08-06T11:18:43.329Z,2550
2016-08-06T11:19:43.309Z,2795
2016-08-06T11:20:44.697Z,2675
2016-08-06T11:21:43.987Z,1785
2016-08-06T11:22:43.952Z,825
2016-08-06T11:23:43.236Z,550
2016-08-06T11:24:43.223Z,595
2016-08-06T11:25:43.899Z,630
2016-08-06T11:26:44.577Z,595
2016-08-06T11:27:44.550Z,545
2016-08-06T11:28:44.544Z,415
2016-08-06T11:29:43.822Z,390
2016-08-06T11:30:44.494Z,375
2016-08-06T11:31:44.479Z,360
2016-08-06T11:32:44.461Z,345
2016-08-06T11:33:44.449Z,330
2016-08-06T11:34:43.026Z,320
2016-08-06T11:35:44.408Z,425
2016-08-06T11:36:44.374Z,395
2016-08-06T11:37:42.963Z,400
2016-08-06T11:38:42.939Z,390
2016-08-06T11:39:44.314Z,400
2016-08-06T11:40:43.601Z,400
2016-08-06T11:41:44.269Z,415
2016-08-06T11:42:44.261Z,460
2016-08-06T11:43:43.526Z,445
2016-08-06T11:44:44.202Z,425
2016-08-06T11:45:42.795Z,425
2016-08-06T11:46:44.162Z,410
2016-08-06T11:47:42.741Z,380
2016-08-06T11:48:44.115Z,365
2016-08-06T11:49:43.389Z,355
2016-08-06T11:50:43.372Z,345
2016-08-06T11:51:44.048Z,350
2016-08-06T11:52:44.018Z,355
2016-08-06T11:53:43.308Z,345
2016-08-06T11:54:43.981Z,340
2016-08-06T11:55:42.560Z,335
2016-08-06T11:56:43.231Z,345
2016-08-06T11:57:44.015Z,360
2016-08-06T11:58:43.886Z,355
2016-08-06T11:59:43.855Z,350
2016-08-06T12:00:43.143Z,355
2016-08-06T12:01:43.111Z,360
2016-08-06T12:02:43.091Z,355
2016-08-06T12:03:43.764Z,340
2016-08-06T12:04:43.039Z,335
2016-08-06T12:05:43.714Z,335
2016-08-06T12:06:42.993Z,335
2016-08-06T12:07:42.973Z,335
2016-08-06T12:08:43.671Z,340
2016-08-06T12:09:42.915Z,340
2016-08-06T12:10:43.591Z,355
2016-08-06T12:11:42.872Z,355
2016-08-06T12:12:42.853Z,360
2016-08-06T12:13:41.425Z,360
2016-08-06T12:14:42.804Z,360
2016-08-06T12:15:43.475Z,350
2016-08-06T12:16:43.468Z,350
2016-08-06T12:17:43.427Z,345
2016-08-06T12:18:43.391Z,340
2016-08-06T12:19:43.369Z,335
2016-08-06T12:20:43.363Z,330
2016-08-06T12:21:42.616Z,330
2016-08-06T12:22:42.608Z,335
2016-08-06T12:23:43.293Z,350
2016-08-06T12:24:43.258Z,355
2016-08-06T12:25:43.218Z,365
2016-08-06T12:26:41.812Z,375
2016-08-06T12:27:42.475Z,375
2016-08-06T12:28:43.150Z,370
2016-08-06T12:29:43.125Z,365
2016-08-06T12:30:41.717Z,360
2016-08-06T12:31:43.072Z,350
2016-08-06T12:32:40.969Z,335
2016-08-06T12:33:42.326Z,330
2016-08-06T12:34:43.000Z,325
2016-08-06T12:35:41.578Z,325
2016-08-06T12:36:42.951Z,325
2016-08-06T12:37:42.922Z,320
2016-08-06T12:38:42.891Z,310
2016-08-06T12:39:42.174Z,300
2016-08-06T12:40:41.451Z,290
2016-08-06T12:41:41.430Z,285
2016-08-06T12:42:42.799Z,300
2016-08-06T12:43:42.086Z,305
2016-08-06T12:44:42.045Z,300
2016-08-06T12:45:42.720Z,295
2016-08-06T12:46:41.300Z,300
2016-08-06T12:47:41.970Z,290
2016-08-06T12:48:42.656Z,285
2016-08-06T12:49:42.621Z,280
2016-08-06T12:50:41.211Z,275
2016-08-06T12:51:41.872Z,275
2016-08-06T12:52:42.551Z,270
2016-08-06T12:53:41.822Z,275
2016-08-06T12:54:41.795Z,275
2016-08-06T12:55:41.767Z,280
2016-08-06T12:56:42.450Z,285
2016-08-06T12:57:41.718Z,290
2016-08-06T12:58:41.003Z,290
2016-08-06T12:59:41.671Z,300
2016-08-06T13:00:40.937Z,305
2016-08-06T13:01:41.626Z,310
2016-08-06T13:02:41.585Z,305
2016-08-06T13:03:40.874Z,300
2016-08-06T13:04:42.232Z,300
2016-08-06T13:05:40.816Z,290
2016-08-06T13:06:41.478Z,285
2016-08-06T13:07:40.762Z,285
2016-08-06T13:08:41.434Z,275
2016-08-06T13:09:42.102Z,265
2016-08-06T13:10:42.078Z,255
2016-08-06T13:11:42.044Z,250
2016-08-06T13:12:42.037Z,250
2016-08-06T13:13:42.011Z,245
2016-08-06T13:14:41.292Z,250
2016-08-06T13:15:40.552Z,250
2016-08-06T13:16:40.527Z,245
2016-08-06T13:17:41.889Z,240
2016-08-06T13:18:40.489Z,235
2016-08-06T13:19:41.852Z,235
2016-08-06T13:20:41.122Z,235
2016-08-06T13:21:41.104Z,230
2016-08-06T13:22:41.064Z,230
2016-08-06T13:23:41.730Z,230
2016-08-06T13:24:40.340Z,225
2016-08-06T13:25:40.291Z,225
2016-08-06T13:26:40.254Z,225
2016-08-06T13:27:41.634Z,220
2016-08-06T13:28:40.215Z,220
2016-08-06T13:29:39.485Z,215
2016-08-06T13:30:41.549Z,215
2016-08-06T13:31:41.524Z,215
2016-08-06T13:32:40.814Z,210
2016-08-06T13:33:41.010Z,205
2016-08-06T13:34:40.749Z,210
2016-08-06T13:35:41.418Z,200
2016-08-06T13:36:41.400Z,205
2016-08-06T13:37:39.992Z,195
2016-08-06T13:38:40.644Z,190
2016-08-06T13:39:40.626Z,190
2016-08-06T13:40:40.592Z,190
2016-08-06T13:41:40.563Z,190
2016-08-06T13:42:41.236Z,185
2016-08-06T13:43:41.205Z,185
2016-08-06T13:44:39.793Z,180
2016-08-06T13:45:39.064Z,180
2016-08-06T13:46:41.123Z,180
2016-08-06T13:47:39.708Z,175
2016-08-06T13:48:40.389Z,175
2016-08-06T13:49:40.346Z,170
2016-08-06T13:50:40.327Z,170
2016-08-06T13:51:40.986Z,170
2016-08-06T13:52:40.277Z,170
2016-08-06T13:53:40.935Z,170
2016-08-06T13:54:40.209Z,165
2016-08-06T13:55:40.886Z,165
2016-08-06T13:56:40.167Z,165
2016-08-06T13:57:40.129Z,160
2016-08-06T13:58:39.414Z,160
2016-08-06T13:59:40.087Z,160
2016-08-06T14:00:42.312Z,160
2016-08-06T14:01:40.736Z,160
2016-08-06T14:02:40.697Z,160
2016-08-06T14:03:39.064Z,155
2016-08-06T14:04:39.947Z,155
2016-08-06T14:05:39.921Z,155
2016-08-06T14:06:39.895Z,155